KGCK

Garden City Regional Airport

Garden City, Kansas, USA
METAR KGCK 200644Z AUTO 03019G24KT 3SM -FZRA BR OVC007 M08/M09 A2977 RMK AO2 FZRAB38 CIG 005V010 P0000 I1001 T10831094 $
Observed Flight Rules
Feb-20 @ 06:44 UTC (22 minutes ago) Instrument Flight Rules
Wind Visibility Clouds Conditions
30° at 19 knots
 Gusting to 24 knots
3 miles
  • Overcast at 700' AGL
  • Light Freezing
  • Light Rain
  • Mist
Temperatures Readings Precipitation
Current -8°C / 18°F
Dewpoint -9°C / 16°F
Humidity 93%
Altimeter 29.77" Hg
Pressure 1008 hPa
Elevation 877
Current Rain 0.005
METAR KGCK 200644Z AUTO 03019G24KT 3SM -FZRA BR OVC007 M08/M09 A2977 RMK AO2 FZRAB38 CIG 005V010 P0000 I1001 T10831094 $
Observed Flight Rules
Feb-20 @ 06:44 UTC
(22 minutes ago)
IFR
Wind Visibility
30° at 19 knots
 Gusting to 24 knots
3 miles
Clouds
  • Overcast at 700' AGL
Conditions
  • Light Freezing
  • Light Rain
  • Mist
Temperature Dewpoint
-8°C / 18°F -9°C / 16°F
Humidity Altimeter Pressure
93% 29.77" Hg 1008 hPa
Current Rain
0.005